Time;durP1;ratioP1;P1;durP2;ratioP2;P2;SDS_P1;SDS_P2;PMS_P1;PMS_P2;Temp;Humidity;BMP_temperature;BMP_pressure;BME280_temperature;BME280_humidity;BME280_pressure;Samples;Min_cycle;Max_cycle;Signal;HPM_P1;HPM_P2
2023/03/06 00:01:02;;;;;;;20.70;12.48;;;;;;;;;;5052635;28;20036;-59
2023/03/06 00:03:28;;;;;;;21.33;13.02;;;;;;;;;;5066856;28;20119;-60
2023/03/06 00:05:56;;;;;;;23.13;14.10;;;;;;;;;;5067411;28;20031;-61
2023/03/06 00:08:22;;;;;;;23.33;13.88;;;;;;;;;;5050608;28;20020;-57
2023/03/06 00:10:48;;;;;;;21.67;13.23;;;;;;;;;;5072975;28;20103;-60
2023/03/06 00:13:15;;;;;;;24.00;15.23;;;;;;;;;;5095333;22;20494;-63
2023/03/06 00:15:41;;;;;;;24.75;14.40;;;;;;;;;;5055923;28;20028;-63
2023/03/06 00:18:07;;;;;;;22.58;14.43;;;;;;;;;;5055845;28;20039;-63
2023/03/06 00:20:34;;;;;;;24.55;14.20;;;;;;;;;;5073790;28;20021;-63
2023/03/06 00:23:00;;;;;;;25.83;14.10;;;;;;;;;;5073573;28;20032;-64
2023/03/06 00:25:26;;;;;;;23.30;14.82;;;;;;;;;;5055593;28;20112;-63
2023/03/06 00:27:52;;;;;;;23.23;14.32;;;;;;;;;;5055915;28;20021;-63
2023/03/06 00:30:19;;;;;;;23.08;15.10;;;;;;;;;;5074066;28;20044;-62
2023/03/06 00:32:45;;;;;;;24.90;15.35;;;;;;;;;;5074704;28;20028;-58
2023/03/06 00:35:12;;;;;;;23.45;14.73;;;;;;;;;;5074443;28;20027;-63
2023/03/06 00:37:38;;;;;;;24.98;15.43;;;;;;;;;;5074208;28;20063;-61
2023/03/06 00:40:05;;;;;;;23.02;14.95;;;;;;;;;;5074245;28;20064;-62
2023/03/06 00:42:30;;;;;;;23.33;14.90;;;;;;;;;;5074187;28;20021;-63
2023/03/06 00:44:56;;;;;;;25.27;15.13;;;;;;;;;;5056013;28;20032;-62
2023/03/06 00:47:22;;;;;;;24.80;14.95;;;;;;;;;;5056268;28;20540;-63
2023/03/06 00:49:49;;;;;;;23.15;14.38;;;;;;;;;;5074049;28;20078;-63
2023/03/06 00:52:15;;;;;;;23.10;14.32;;;;;;;;;;5073516;28;20020;-56
2023/03/06 00:54:41;;;;;;;24.98;15.93;;;;;;;;;;5074010;28;20028;-62
2023/03/06 00:57:07;;;;;;;21.83;14.80;;;;;;;;;;5074060;28;20373;-62
2023/03/06 00:59:33;;;;;;;26.35;15.48;;;;;;;;;;5056155;28;20442;-62
2023/03/06 01:01:59;;;;;;;22.73;14.77;;;;;;;;;;5055888;28;20047;-62
2023/03/06 01:04:25;;;;;;;22.20;14.52;;;;;;;;;;5055673;28;20465;-62
2023/03/06 01:06:51;;;;;;;24.52;16.67;;;;;;;;;;5055973;28;20105;-62
2023/03/06 01:09:17;;;;;;;24.13;15.07;;;;;;;;;;5073540;28;20017;-62
2023/03/06 01:11:43;;;;;;;23.77;14.60;;;;;;;;;;5073433;28;20435;-62
2023/03/06 01:14:09;;;;;;;31.27;15.38;;;;;;;;;;5073347;28;20024;-63
2023/03/06 01:16:36;;;;;;;23.98;15.02;;;;;;;;;;5073958;28;20029;-62
2023/03/06 01:19:02;;;;;;;24.10;16.05;;;;;;;;;;5073583;28;20027;-62
2023/03/06 01:21:28;;;;;;;25.13;15.50;;;;;;;;;;5054745;28;20401;-63
2023/03/06 01:23:54;;;;;;;21.85;14.32;;;;;;;;;;5073275;28;20031;-62
2023/03/06 01:26:20;;;;;;;24.05;16.10;;;;;;;;;;5073198;28;20380;-62
2023/03/06 01:28:46;;;;;;;22.75;14.82;;;;;;;;;;5073550;28;20107;-62
2023/03/06 01:31:12;;;;;;;23.83;15.35;;;;;;;;;;5073248;28;20029;-63
2023/03/06 01:33:38;;;;;;;24.92;15.73;;;;;;;;;;5072842;28;20078;-63
2023/03/06 01:36:05;;;;;;;22.60;15.02;;;;;;;;;;5073116;28;20128;-64
2023/03/06 01:38:31;;;;;;;26.60;15.13;;;;;;;;;;5053612;28;20032;-64
2023/03/06 01:40:57;;;;;;;28.17;16.58;;;;;;;;;;5055113;28;20024;-66
2023/03/06 01:43:24;;;;;;;22.23;15.07;;;;;;;;;;5072450;28;20036;-62
2023/03/06 01:45:50;;;;;;;24.38;15.70;;;;;;;;;;5072748;28;20103;-63
2023/03/06 01:48:17;;;;;;;26.75;16.00;;;;;;;;;;5072804;28;20047;-62
2023/03/06 01:50:43;;;;;;;22.75;15.30;;;;;;;;;;5054910;28;20546;-63
2023/03/06 01:53:10;;;;;;;24.83;16.08;;;;;;;;;;5054716;28;20050;-63
2023/03/06 01:55:36;;;;;;;24.00;15.73;;;;;;;;;;5072718;28;20115;-62
2023/03/06 01:58:11;;;;;;;23.45;15.80;;;;;;;;;;5072526;28;20030;-63
2023/03/06 02:00:37;;;;;;;22.25;15.32;;;;;;;;;;5054609;28;20431;-64
2023/03/06 02:03:03;;;;;;;24.77;16.25;;;;;;;;;;5054198;28;20028;-61
2023/03/06 02:05:29;;;;;;;24.05;16.38;;;;;;;;;;5054393;28;20431;-63
2023/03/06 02:07:55;;;;;;;25.10;16.70;;;;;;;;;;5072297;28;20083;-63
2023/03/06 02:10:21;;;;;;;24.25;16.17;;;;;;;;;;5072405;28;20047;-62
2023/03/06 02:12:48;;;;;;;24.45;16.35;;;;;;;;;;5072030;28;20039;-63
2023/03/06 02:15:15;;;;;;;24.73;17.13;;;;;;;;;;5072055;28;20028;-63
2023/03/06 02:17:42;;;;;;;31.13;18.20;;;;;;;;;;5072321;28;20028;-63
2023/03/06 02:20:15;;;;;;;24.50;16.80;;;;;;;;;;5054240;28;20393;-64
2023/03/06 02:23:00;;;;;;;23.98;16.55;;;;;;;;;;5054156;28;20024;-63
2023/03/06 02:25:26;;;;;;;24.00;17.20;;;;;;;;;;5054041;28;20023;-63
2023/03/06 02:27:52;;;;;;;26.20;17.85;;;;;;;;;;5072047;28;20029;-63
2023/03/06 02:30:18;;;;;;;23.35;15.82;;;;;;;;;;5054103;28;20013;-63
2023/03/06 02:32:44;;;;;;;25.17;16.45;;;;;;;;;;5053918;28;20033;-62
2023/03/06 02:35:30;;;;;;;20.88;13.93;;;;;;;;;;5070013;28;20036;-63
2023/03/06 02:38:04;;;;;;;25.85;16.50;;;;;;;;;;5071908;28;20025;-64
2023/03/06 02:40:30;;;;;;;26.50;18.25;;;;;;;;;;5053812;28;20028;-65
2023/03/06 02:42:57;;;;;;;26.27;17.45;;;;;;;;;;5071701;28;20035;-65
2023/03/06 02:45:44;;;;;;;23.90;16.48;;;;;;;;;;5053642;28;20017;-62
2023/03/06 02:48:10;;;;;;;26.13;17.13;;;;;;;;;;5053669;28;20020;-62
2023/03/06 02:50:37;;;;;;;23.88;15.98;;;;;;;;;;5053968;28;20103;-64
2023/03/06 02:53:02;;;;;;;26.00;16.48;;;;;;;;;;5071384;28;20021;-61
2023/03/06 02:55:28;;;;;;;23.30;16.30;;;;;;;;;;5071716;28;20499;-64
2023/03/06 02:57:54;;;;;;;22.55;15.65;;;;;;;;;;5071684;28;20028;-64
2023/03/06 03:00:21;;;;;;;24.65;16.88;;;;;;;;;;5071717;28;20031;-63
2023/03/06 03:02:47;;;;;;;24.77;17.25;;;;;;;;;;5071459;28;20028;-63
2023/03/06 03:05:13;;;;;;;25.73;17.98;;;;;;;;;;5053453;28;20028;-64
2023/03/06 03:07:39;;;;;;;23.67;16.83;;;;;;;;;;5053719;28;20025;-63
2023/03/06 03:10:05;;;;;;;27.77;18.23;;;;;;;;;;5065242;28;20444;-64
2023/03/06 03:12:32;;;;;;;25.40;17.35;;;;;;;;;;5071220;28;20025;-63
2023/03/06 03:14:58;;;;;;;25.58;18.13;;;;;;;;;;5053149;28;20437;-63
2023/03/06 03:17:24;;;;;;;23.80;16.67;;;;;;;;;;5053493;28;20119;-63
2023/03/06 03:19:50;;;;;;;23.73;16.85;;;;;;;;;;5053604;28;20035;-64
2023/03/06 03:22:16;;;;;;;23.45;16.10;;;;;;;;;;5053229;28;20051;-62
2023/03/06 03:24:42;;;;;;;24.58;17.67;;;;;;;;;;5070892;28;20032;-63
2023/03/06 03:27:09;;;;;;;26.63;18.10;;;;;;;;;;5071913;28;20481;-62
2023/03/06 03:29:35;;;;;;;28.88;19.48;;;;;;;;;;5053416;28;20024;-64
2023/03/06 03:32:01;;;;;;;26.60;18.75;;;;;;;;;;5053359;28;20027;-64
2023/03/06 03:34:27;;;;;;;25.58;18.33;;;;;;;;;;5071178;28;20039;-63
2023/03/06 03:36:53;;;;;;;25.98;17.58;;;;;;;;;;5053386;28;20036;-62
2023/03/06 03:39:19;;;;;;;25.25;18.45;;;;;;;;;;5071347;28;20028;-64
2023/03/06 03:41:45;;;;;;;27.40;18.45;;;;;;;;;;5071042;28;20029;-62
2023/03/06 03:44:12;;;;;;;27.50;18.67;;;;;;;;;;5055786;28;20744;-63
2023/03/06 03:46:38;;;;;;;30.05;20.40;;;;;;;;;;5074935;28;20056;-63
2023/03/06 03:49:05;;;;;;;23.20;17.20;;;;;;;;;;5074769;28;20417;-63
2023/03/06 03:51:31;;;;;;;27.63;17.98;;;;;;;;;;5074663;28;20016;-63
2023/03/06 03:53:57;;;;;;;26.25;18.65;;;;;;;;;;5074519;28;20107;-64
2023/03/06 03:56:24;;;;;;;27.52;19.30;;;;;;;;;;5074902;28;20079;-62
2023/03/06 03:58:50;;;;;;;27.08;18.42;;;;;;;;;;5056879;28;20033;-63
2023/03/06 04:01:16;;;;;;;25.60;18.02;;;;;;;;;;5074701;28;20032;-57
2023/03/06 04:03:42;;;;;;;26.98;18.20;;;;;;;;;;5074382;28;20575;-62
2023/03/06 04:06:08;;;;;;;24.73;16.75;;;;;;;;;;5056914;28;20063;-61
2023/03/06 04:08:34;;;;;;;28.52;18.52;;;;;;;;;;5074738;28;20476;-64
2023/03/06 04:11:00;;;;;;;29.50;18.48;;;;;;;;;;5074456;28;20028;-62
2023/03/06 04:13:26;;;;;;;25.77;18.77;;;;;;;;;;5056169;28;20249;-64
2023/03/06 04:15:53;;;;;;;22.48;17.60;;;;;;;;;;5074624;28;20136;-62
2023/03/06 04:18:19;;;;;;;25.60;18.23;;;;;;;;;;5074505;28;20055;-63
2023/03/06 04:20:46;;;;;;;28.95;18.73;;;;;;;;;;5074656;28;20024;-62
2023/03/06 04:23:12;;;;;;;25.73;18.85;;;;;;;;;;5073950;28;20028;-60
2023/03/06 04:25:38;;;;;;;29.17;19.42;;;;;;;;;;5056571;28;20017;-62
2023/03/06 04:28:05;;;;;;;28.33;18.63;;;;;;;;;;5074484;28;20023;-63
2023/03/06 04:30:31;;;;;;;26.73;18.75;;;;;;;;;;5056393;28;20034;-63
2023/03/06 04:32:57;;;;;;;26.98;19.52;;;;;;;;;;5073923;28;20031;-62
2023/03/06 04:35:23;;;;;;;27.80;18.58;;;;;;;;;;5073870;28;20050;-63
2023/03/06 04:37:49;;;;;;;26.38;17.95;;;;;;;;;;5074161;28;20362;-63
2023/03/06 04:40:20;;;;;;;28.25;18.67;;;;;;;;;;5073967;28;20429;-62
2023/03/06 04:42:46;;;;;;;28.00;19.52;;;;;;;;;;5055854;28;20021;-62
2023/03/06 04:45:12;;;;;;;30.52;21.27;;;;;;;;;;5073605;28;20025;-62
2023/03/06 04:47:38;;;;;;;28.48;19.83;;;;;;;;;;5073779;28;20400;-63
2023/03/06 04:50:05;;;;;;;28.13;20.55;;;;;;;;;;5073903;28;20017;-63
2023/03/06 04:52:31;;;;;;;29.83;21.80;;;;;;;;;;5073426;28;20119;-62
2023/03/06 04:54:57;;;;;;;30.05;22.65;;;;;;;;;;5054483;28;20175;-63
2023/03/06 04:57:23;;;;;;;27.23;21.20;;;;;;;;;;5055633;28;20032;-63
2023/03/06 04:59:49;;;;;;;28.35;21.83;;;;;;;;;;5073757;28;20074;-62
2023/03/06 05:02:15;;;;;;;31.75;21.52;;;;;;;;;;5073598;28;20027;-62
2023/03/06 05:04:41;;;;;;;29.38;20.98;;;;;;;;;;5055689;28;20115;-63
2023/03/06 05:07:07;;;;;;;28.55;22.27;;;;;;;;;;5075064;28;20055;-64
2023/03/06 05:09:34;;;;;;;26.58;20.55;;;;;;;;;;5055563;28;20025;-63
2023/03/06 05:12:00;;;;;;;26.05;20.60;;;;;;;;;;5055610;28;20376;-60
2023/03/06 05:14:29;;;;;;;25.58;19.23;;;;;;;;;;5073376;28;20066;-62
2023/03/06 05:16:55;;;;;;;27.73;20.30;;;;;;;;;;5055661;28;20052;-63
2023/03/06 05:19:21;;;;;;;28.17;20.83;;;;;;;;;;5055439;28;20060;-63
2023/03/06 05:21:47;;;;;;;29.88;22.50;;;;;;;;;;5073278;28;20028;-62
2023/03/06 05:24:13;;;;;;;26.17;19.85;;;;;;;;;;5055141;28;20033;-61
2023/03/06 05:26:39;;;;;;;28.80;22.40;;;;;;;;;;5073186;28;20021;-62
2023/03/06 05:29:05;;;;;;;26.45;21.65;;;;;;;;;;5073237;28;20032;-59
2023/03/06 05:31:31;;;;;;;25.55;21.45;;;;;;;;;;5073204;28;20056;-61
2023/03/06 05:33:57;;;;;;;28.15;20.83;;;;;;;;;;5072805;28;20063;-61
2023/03/06 05:36:23;;;;;;;27.65;21.20;;;;;;;;;;5073087;28;20086;-63
2023/03/06 05:38:49;;;;;;;29.08;21.95;;;;;;;;;;5072937;28;20396;-62
2023/03/06 05:41:16;;;;;;;27.80;19.63;;;;;;;;;;5055076;28;20166;-58
2023/03/06 05:43:42;;;;;;;27.25;18.85;;;;;;;;;;5072618;28;20034;-58
2023/03/06 05:46:08;;;;;;;27.58;19.92;;;;;;;;;;5072627;28;20027;-62
2023/03/06 05:48:36;;;;;;;26.27;19.13;;;;;;;;;;5056027;28;20035;-62
2023/03/06 05:51:02;;;;;;;26.27;18.52;;;;;;;;;;5072530;28;20023;-63
2023/03/06 05:53:29;;;;;;;27.02;19.90;;;;;;;;;;5054211;28;20032;-62
2023/03/06 05:55:56;;;;;;;24.92;18.98;;;;;;;;;;5072615;28;20029;-58
2023/03/06 05:58:22;;;;;;;26.23;19.50;;;;;;;;;;5055304;28;20029;-64
2023/03/06 06:00:48;;;;;;;31.52;20.60;;;;;;;;;;5054546;28;20039;-64
2023/03/06 06:03:14;;;;;;;28.40;20.38;;;;;;;;;;5071917;28;20028;-62
2023/03/06 06:05:40;;;;;;;25.48;18.95;;;;;;;;;;5054268;28;20024;-61
2023/03/06 06:08:06;;;;;;;26.48;18.90;;;;;;;;;;5054664;28;20025;-63
2023/03/06 06:10:32;;;;;;;30.05;19.95;;;;;;;;;;5072337;28;20374;-63
2023/03/06 06:12:58;;;;;;;29.30;20.08;;;;;;;;;;5086103;22;20056;-57
2023/03/06 06:15:26;;;;;;;27.08;20.17;;;;;;;;;;5057001;28;20593;-58
2023/03/06 06:17:52;;;;;;;28.15;19.58;;;;;;;;;;5056019;28;20013;-59
2023/03/06 06:20:18;;;;;;;26.05;18.95;;;;;;;;;;5051536;28;20021;-57
2023/03/06 06:22:44;;;;;;;24.33;17.10;;;;;;;;;;5047006;28;20393;-59
2023/03/06 06:25:10;;;;;;;25.55;17.58;;;;;;;;;;5013585;28;20033;-58
2023/03/06 06:27:36;;;;;;;25.98;18.50;;;;;;;;;;5032111;28;20405;-60
2023/03/06 06:30:03;;;;;;;28.77;18.73;;;;;;;;;;5013461;28;20017;-56
2023/03/06 06:32:29;;;;;;;24.30;17.85;;;;;;;;;;5031304;28;20048;-59
2023/03/06 06:34:55;;;;;;;25.05;18.42;;;;;;;;;;5030861;28;20029;-59
2023/03/06 06:37:21;;;;;;;26.98;18.65;;;;;;;;;;5031365;28;20488;-60
2023/03/06 06:39:47;;;;;;;26.58;19.48;;;;;;;;;;5031691;28;20026;-60
2023/03/06 06:42:13;;;;;;;30.13;19.27;;;;;;;;;;5013755;28;20107;-60
2023/03/06 06:44:39;;;;;;;26.55;19.10;;;;;;;;;;5030983;28;20022;-60
2023/03/06 06:47:05;;;;;;;24.92;18.00;;;;;;;;;;5031046;28;20124;-58
2023/03/06 06:49:31;;;;;;;28.08;18.23;;;;;;;;;;5031314;28;20049;-57
2023/03/06 06:51:57;;;;;;;33.28;19.17;;;;;;;;;;5013072;28;20481;-60
2023/03/06 06:54:24;;;;;;;27.73;17.95;;;;;;;;;;5030637;28;20064;-61
2023/03/06 06:56:50;;;;;;;26.42;18.77;;;;;;;;;;5030680;28;20021;-58
2023/03/06 06:59:16;;;;;;;22.10;15.63;;;;;;;;;;5030894;28;20029;-60
2023/03/06 07:01:42;;;;;;;26.88;18.02;;;;;;;;;;5030576;28;20026;-61
2023/03/06 07:04:09;;;;;;;27.63;17.60;;;;;;;;;;5031042;28;20033;-60
2023/03/06 07:06:35;;;;;;;22.92;16.45;;;;;;;;;;5031272;28;20024;-60
2023/03/06 07:09:01;;;;;;;26.77;16.85;;;;;;;;;;5031353;28;20026;-60
2023/03/06 07:11:27;;;;;;;24.98;17.25;;;;;;;;;;5029096;28;20060;-59
2023/03/06 07:13:54;;;;;;;30.60;16.90;;;;;;;;;;5029831;28;20101;-60
2023/03/06 07:16:20;;;;;;;28.90;18.05;;;;;;;;;;5030938;28;20048;-60
2023/03/06 07:18:47;;;;;;;29.23;17.42;;;;;;;;;;5032684;28;20401;-59
2023/03/06 07:21:13;;;;;;;24.40;17.42;;;;;;;;;;5032661;28;20029;-60
2023/03/06 07:23:39;;;;;;;26.63;18.00;;;;;;;;;;5033716;28;20040;-57
2023/03/06 07:26:05;;;;;;;26.05;17.67;;;;;;;;;;5034091;28;20025;-60
2023/03/06 07:28:32;;;;;;;27.48;18.35;;;;;;;;;;5034804;28;20362;-59
2023/03/06 07:30:57;;;;;;;25.17;19.42;;;;;;;;;;5034865;28;20059;-60
2023/03/06 07:33:24;;;;;;;28.77;18.38;;;;;;;;;;5034255;28;20025;-59
2023/03/06 07:35:50;;;;;;;29.70;18.30;;;;;;;;;;5034914;28;20029;-60
2023/03/06 07:38:16;;;;;;;26.83;18.20;;;;;;;;;;5034621;28;20025;-61
2023/03/06 07:40:42;;;;;;;25.55;18.98;;;;;;;;;;5034628;28;20091;-59
2023/03/06 07:43:08;;;;;;;25.52;19.27;;;;;;;;;;5016415;28;20057;-61
2023/03/06 07:45:34;;;;;;;28.30;19.63;;;;;;;;;;5034649;28;20033;-60
2023/03/06 07:48:00;;;;;;;27.67;18.17;;;;;;;;;;5034401;28;20025;-57
2023/03/06 07:50:26;;;;;;;28.65;19.42;;;;;;;;;;5034070;28;20044;-59
2023/03/06 07:52:52;;;;;;;26.13;21.52;;;;;;;;;;5016702;28;20482;-59
2023/03/06 07:55:19;;;;;;;27.33;21.58;;;;;;;;;;5016367;28;20022;-60
2023/03/06 07:57:45;;;;;;;29.13;25.08;;;;;;;;;;5034396;28;20048;-60
2023/03/06 08:00:13;;;;;;;31.13;28.13;;;;;;;;;;5034409;28;20022;-59
2023/03/06 08:02:39;;;;;;;40.38;36.38;;;;;;;;;;5034517;28;20033;-59
2023/03/06 08:05:06;;;;;;;38.47;35.17;;;;;;;;;;5016320;28;20029;-60
2023/03/06 08:07:32;;;;;;;39.97;36.33;;;;;;;;;;5034565;28;20101;-60
2023/03/06 08:09:58;;;;;;;40.28;36.63;;;;;;;;;;5034384;28;20025;-56
2023/03/06 08:12:24;;;;;;;43.97;39.97;;;;;;;;;;5016189;28;20155;-59
2023/03/06 08:14:50;;;;;;;44.35;40.47;;;;;;;;;;5049411;28;20124;-57
2023/03/06 08:17:16;;;;;;;54.22;41.95;;;;;;;;;;5034328;28;20068;-58
2023/03/06 08:19:42;;;;;;;46.80;41.88;;;;;;;;;;5049863;28;20034;-60
2023/03/06 08:22:09;;;;;;;44.30;40.28;;;;;;;;;;5049274;28;20025;-57
2023/03/06 08:24:36;;;;;;;45.45;41.50;;;;;;;;;;5033924;28;20028;-58
2023/03/06 08:27:02;;;;;;;44.70;40.78;;;;;;;;;;5049448;28;20033;-58
2023/03/06 08:29:28;;;;;;;47.10;42.95;;;;;;;;;;5033859;28;20017;-58
2023/03/06 08:31:54;;;;;;;48.15;43.75;;;;;;;;;;5034068;28;20075;-60
2023/03/06 08:34:21;;;;;;;52.20;47.70;;;;;;;;;;5032799;28;20555;-59
2023/03/06 08:36:47;;;;;;;49.63;45.38;;;;;;;;;;5033956;28;20063;-62
2023/03/06 08:39:13;;;;;;;50.67;46.20;;;;;;;;;;5033945;28;20525;-59
2023/03/06 08:41:39;;;;;;;49.78;45.55;;;;;;;;;;5033624;28;20417;-59
2023/03/06 08:44:06;;;;;;;49.88;45.65;;;;;;;;;;5033371;28;20038;-58
2023/03/06 08:46:32;;;;;;;48.38;44.47;;;;;;;;;;5033749;28;20073;-57
2023/03/06 08:48:58;;;;;;;47.78;43.72;;;;;;;;;;5015988;28;20052;-59
2023/03/06 08:51:24;;;;;;;48.38;44.38;;;;;;;;;;5016080;28;20497;-58
2023/03/06 08:53:51;;;;;;;48.80;44.80;;;;;;;;;;5046467;28;20052;-61
2023/03/06 08:56:30;;;;;;;48.97;44.97;;;;;;;;;;5043572;28;20036;-61
2023/03/06 08:58:57;;;;;;;49.00;44.72;;;;;;;;;;5060131;28;20032;-58
2023/03/06 09:01:27;;;;;;;50.83;46.17;;;;;;;;;;5054850;28;20021;-57
2023/03/06 09:03:54;;;;;;;50.78;46.47;;;;;;;;;;5053083;28;20474;-59
2023/03/06 09:06:21;;;;;;;51.58;47.10;;;;;;;;;;5053185;28;20029;-58
2023/03/06 09:08:47;;;;;;;53.45;48.67;;;;;;;;;;5047832;28;20301;-58
2023/03/06 09:11:14;;;;;;;53.33;48.70;;;;;;;;;;5033118;28;20056;-62
2023/03/06 09:13:41;;;;;;;54.40;49.85;;;;;;;;;;5033162;28;20038;-62
2023/03/06 09:16:08;;;;;;;53.72;48.92;;;;;;;;;;5030992;28;20482;-62
2023/03/06 09:18:34;;;;;;;51.53;47.17;;;;;;;;;;5013537;28;20028;-62
2023/03/06 09:21:00;;;;;;;49.58;45.08;;;;;;;;;;5031386;28;20436;-61
2023/03/06 09:23:26;;;;;;;47.70;43.35;;;;;;;;;;5032430;28;20498;-60
2023/03/06 09:25:53;;;;;;;44.80;40.70;;;;;;;;;;5015073;28;20022;-61
2023/03/06 09:28:20;;;;;;;46.13;41.95;;;;;;;;;;5014724;28;20406;-61
2023/03/06 09:30:46;;;;;;;42.42;38.53;;;;;;;;;;5032303;28;20025;-61
2023/03/06 09:33:12;;;;;;;44.08;39.83;;;;;;;;;;5032975;28;20219;-63
2023/03/06 09:35:48;;;;;;;42.33;38.17;;;;;;;;;;5033062;28;20041;-60
2023/03/06 09:38:14;;;;;;;41.53;37.53;;;;;;;;;;5033573;28;20117;-62
2023/03/06 09:40:59;;;;;;;41.55;37.72;;;;;;;;;;5031982;28;20044;-62
2023/03/06 09:43:28;;;;;;;41.83;37.97;;;;;;;;;;5032103;28;20022;-62
2023/03/06 09:45:54;;;;;;;40.80;37.00;;;;;;;;;;5014609;28;20032;-60
2023/03/06 09:48:22;;;;;;;40.22;36.53;;;;;;;;;;5032307;28;20212;-60
2023/03/06 09:50:54;;;;;;;39.45;35.70;;;;;;;;;;5032656;28;20018;-59
2023/03/06 09:53:23;;;;;;;41.13;37.38;;;;;;;;;;5014422;28;20030;-62
2023/03/06 09:55:55;;;;;;;38.50;34.80;;;;;;;;;;5032216;28;20022;-60
2023/03/06 09:58:23;;;;;;;37.40;34.10;;;;;;;;;;5032245;28;20056;-61
2023/03/06 10:00:59;;;;;;;35.10;31.77;;;;;;;;;;5032085;28;20071;-62
2023/03/06 10:03:28;;;;;;;36.85;33.47;;;;;;;;;;5032024;28;20032;-62
2023/03/06 10:06:09;;;;;;;37.15;33.70;;;;;;;;;;5031967;28;20021;-61
2023/03/06 10:08:41;;;;;;;34.35;31.05;;;;;;;;;;5031746;28;20032;-62
2023/03/06 10:11:09;;;;;;;32.88;29.67;;;;;;;;;;5032110;28;20071;-60
2023/03/06 10:13:38;;;;;;;31.55;28.48;;;;;;;;;;5031736;28;20385;-61
2023/03/06 10:16:10;;;;;;;30.95;27.73;;;;;;;;;;5031728;28;20030;-59
2023/03/06 10:18:37;;;;;;;30.42;27.25;;;;;;;;;;5032347;28;20569;-59
2023/03/06 10:21:05;;;;;;;29.70;26.70;;;;;;;;;;5031925;28;20064;-56
2023/03/06 10:23:41;;;;;;;29.98;27.08;;;;;;;;;;5031627;28;20406;-61
2023/03/06 10:26:07;;;;;;;27.23;24.52;;;;;;;;;;5031923;28;20029;-61
2023/03/06 10:28:41;;;;;;;26.23;23.60;;;;;;;;;;5031733;28;20033;-59
2023/03/06 10:31:20;;;;;;;27.95;23.75;;;;;;;;;;5031157;28;20026;-60
2023/03/06 10:34:14;;;;;;;26.08;23.20;;;;;;;;;;5031543;28;20036;-59
2023/03/06 10:36:40;;;;;;;25.75;22.95;;;;;;;;;;5047402;28;20098;-62
2023/03/06 10:39:13;;;;;;;24.10;21.52;;;;;;;;;;5045122;28;20036;-61
2023/03/06 10:41:39;;;;;;;23.52;19.75;;;;;;;;;;5026561;28;20163;-59
2023/03/06 10:44:06;;;;;;;21.73;18.65;;;;;;;;;;5030201;28;20156;-60
2023/03/06 10:46:36;;;;;;;22.50;19.55;;;;;;;;;;5030657;28;20017;-60
2023/03/06 10:49:04;;;;;;;22.40;19.98;;;;;;;;;;5020424;28;20036;-60
2023/03/06 10:51:30;;;;;;;19.90;16.77;;;;;;;;;;5028085;28;20370;-61
2023/03/06 10:53:56;;;;;;;20.10;17.13;;;;;;;;;;5029486;28;20393;-59
2023/03/06 10:56:33;;;;;;;20.92;17.13;;;;;;;;;;5030718;28;20022;-60
2023/03/06 10:59:11;;;;;;;19.73;17.63;;;;;;;;;;5029380;28;20132;-62
2023/03/06 11:01:37;;;;;;;21.38;17.85;;;;;;;;;;5029431;28;20018;-61
2023/03/06 11:04:25;;;;;;;19.13;16.73;;;;;;;;;;5030638;28;20482;-60
2023/03/06 11:07:08;;;;;;;20.50;16.50;;;;;;;;;;5028148;28;20030;-62
2023/03/06 11:09:34;;;;;;;18.60;15.23;;;;;;;;;;5028385;28;20022;-61
2023/03/06 11:12:21;;;;;;;19.55;16.42;;;;;;;;;;5030395;28;20025;-59
2023/03/06 11:14:55;;;;;;;19.20;15.98;;;;;;;;;;5029879;28;20030;-58
2023/03/06 11:17:30;;;;;;;17.65;15.02;;;;;;;;;;5030152;28;20100;-60
2023/03/06 11:20:17;;;;;;;18.85;16.25;;;;;;;;;;5034118;28;20025;-61
2023/03/06 11:22:46;;;;;;;19.48;15.18;;;;;;;;;;5027725;28;20025;-61
2023/03/06 11:25:15;;;;;;;19.23;15.70;;;;;;;;;;5030033;28;20018;-60
2023/03/06 11:27:43;;;;;;;18.80;16.08;;;;;;;;;;5030471;28;20026;-57
2023/03/06 11:30:17;;;;;;;19.35;16.42;;;;;;;;;;5028378;28;20051;-61
2023/03/06 11:32:49;;;;;;;17.98;14.52;;;;;;;;;;5028391;28;20037;-61
2023/03/06 11:35:19;;;;;;;18.65;15.52;;;;;;;;;;5031159;28;20110;-60
2023/03/06 11:37:50;;;;;;;17.40;14.60;;;;;;;;;;5031107;28;20025;-62
2023/03/06 11:40:19;;;;;;;17.80;14.10;;;;;;;;;;5013413;28;20466;-63
2023/03/06 11:42:49;;;;;;;17.02;13.82;;;;;;;;;;5021598;28;20029;-59
2023/03/06 11:45:24;;;;;;;17.25;13.93;;;;;;;;;;5037297;28;20021;-57
2023/03/06 11:48:08;;;;;;;16.55;13.52;;;;;;;;;;5032844;28;20017;-61
2023/03/06 11:50:36;;;;;;;16.60;12.70;;;;;;;;;;5031109;28;20385;-60
2023/03/06 11:53:06;;;;;;;16.15;12.68;;;;;;;;;;5030379;28;20033;-61
2023/03/06 11:55:32;;;;;;;15.68;12.25;;;;;;;;;;5029569;28;20119;-61
2023/03/06 11:58:10;;;;;;;15.20;11.60;;;;;;;;;;5028650;28;20122;-61
2023/03/06 12:00:46;;;;;;;18.00;11.73;;;;;;;;;;5027935;28;20033;-60
2023/03/06 12:03:15;;;;;;;16.15;11.95;;;;;;;;;;5025138;28;20025;-63
2023/03/06 12:05:50;;;;;;;16.30;11.60;;;;;;;;;;5033819;28;20065;-61
2023/03/06 12:08:35;;;;;;;17.08;11.77;;;;;;;;;;5032152;28;20026;-61
2023/03/06 12:11:05;;;;;;;15.85;11.68;;;;;;;;;;5024298;28;20506;-60
2023/03/06 12:13:37;;;;;;;17.20;11.90;;;;;;;;;;5081659;22;20090;-66
2023/03/06 12:16:12;;;;;;;16.38;11.85;;;;;;;;;;5052728;28;20489;-64
2023/03/06 12:18:52;;;;;;;17.30;11.65;;;;;;;;;;5036080;28;20025;-65
2023/03/06 12:21:31;;;;;;;17.05;11.85;;;;;;;;;;5047278;28;20399;-63
2023/03/06 12:23:57;;;;;;;17.42;12.43;;;;;;;;;;5059577;28;20033;-66
2023/03/06 12:26:32;;;;;;;15.88;11.80;;;;;;;;;;5058474;28;20121;-66
2023/03/06 12:29:11;;;;;;;16.13;12.10;;;;;;;;;;5042703;28;20025;-66
2023/03/06 12:31:45;;;;;;;16.35;12.02;;;;;;;;;;5030897;28;20021;-65
2023/03/06 12:34:30;;;;;;;16.98;12.30;;;;;;;;;;5052838;28;20035;-64
2023/03/06 12:37:15;;;;;;;15.80;11.95;;;;;;;;;;5042415;28;20025;-63
2023/03/06 12:39:44;;;;;;;18.67;12.70;;;;;;;;;;5058285;28;20021;-66
2023/03/06 12:42:25;;;;;;;17.67;12.82;;;;;;;;;;5042339;28;20108;-67
2023/03/06 12:45:00;;;;;;;16.35;12.30;;;;;;;;;;5050888;28;20584;-64
2023/03/06 12:47:28;;;;;;;18.85;13.40;;;;;;;;;;5044718;28;20065;-66
2023/03/06 12:49:58;;;;;;;16.60;12.07;;;;;;;;;;5033629;28;20116;-66
2023/03/06 12:52:30;;;;;;;15.65;11.82;;;;;;;;;;5047094;28;20267;-66
2023/03/06 12:54:58;;;;;;;16.08;12.05;;;;;;;;;;5053895;28;20021;-66
2023/03/06 12:57:24;;;;;;;16.00;11.98;;;;;;;;;;5053825;28;20086;-65
2023/03/06 12:59:51;;;;;;;17.05;12.50;;;;;;;;;;5035794;28;20224;-67
2023/03/06 13:02:49;;;;;;;17.45;11.60;;;;;;;;;;5046986;28;20116;-66
2023/03/06 13:05:34;;;;;;;16.23;11.45;;;;;;;;;;4996278;28;20559;-66
2023/03/06 13:08:03;;;;;;;18.17;11.23;;;;;;;;;;5033680;28;20453;-66
2023/03/06 13:10:32;;;;;;;16.70;11.25;;;;;;;;;;5025625;28;20053;-65
2023/03/06 13:13:03;;;;;;;15.07;10.70;;;;;;;;;;5021756;28;20398;-65
2023/03/06 13:15:35;;;;;;;18.45;10.75;;;;;;;;;;5026342;28;20025;-66
2023/03/06 13:18:22;;;;;;;16.48;11.00;;;;;;;;;;5031028;28;20067;-65
2023/03/06 13:20:57;;;;;;;19.55;11.20;;;;;;;;;;5014100;28;20029;-65
2023/03/06 13:23:46;;;;;;;16.55;10.85;;;;;;;;;;5034838;28;20405;-65
2023/03/06 13:26:24;;;;;;;16.23;10.55;;;;;;;;;;5043743;28;20036;-66
2023/03/06 13:28:52;;;;;;;15.73;10.85;;;;;;;;;;5051593;28;20036;-65
2023/03/06 13:31:35;;;;;;;16.95;11.18;;;;;;;;;;5044073;28;20028;-66
2023/03/06 13:34:01;;;;;;;16.27;10.77;;;;;;;;;;5033152;28;20033;-64
2023/03/06 13:36:28;;;;;;;15.82;10.77;;;;;;;;;;5015489;28;20025;-65
2023/03/06 13:38:54;;;;;;;16.38;10.70;;;;;;;;;;5033389;28;20029;-66
2023/03/06 13:41:23;;;;;;;17.10;10.90;;;;;;;;;;5015567;28;20037;-66
2023/03/06 13:43:54;;;;;;;16.83;10.43;;;;;;;;;;5032324;28;20029;-66
2023/03/06 13:46:24;;;;;;;16.42;10.93;;;;;;;;;;5033124;28;20475;-64
2023/03/06 13:49:11;;;;;;;15.27;10.98;;;;;;;;;;5037415;28;20051;-65
2023/03/06 13:52:01;;;;;;;15.45;11.07;;;;;;;;;;5034929;28;20024;-64
2023/03/06 13:54:49;;;;;;;15.50;10.90;;;;;;;;;;5015981;28;20401;-66
2023/03/06 13:57:18;;;;;;;15.50;10.73;;;;;;;;;;5035591;28;20029;-64
2023/03/06 14:00:08;;;;;;;16.15;10.65;;;;;;;;;;5053425;28;20035;-64
2023/03/06 14:02:53;;;;;;;17.48;11.50;;;;;;;;;;5053942;28;20033;-64
2023/03/06 14:05:20;;;;;;;18.30;10.90;;;;;;;;;;5035014;28;20129;-65
2023/03/06 14:07:48;;;;;;;15.88;11.23;;;;;;;;;;5052698;28;20118;-64
2023/03/06 14:10:24;;;;;;;18.30;11.25;;;;;;;;;;5034761;28;20029;-64
2023/03/06 14:12:51;;;;;;;15.20;10.65;;;;;;;;;;5041235;28;20103;-62
2023/03/06 14:15:17;;;;;;;16.50;10.85;;;;;;;;;;5047344;28;20032;-65
2023/03/06 14:17:53;;;;;;;15.85;10.80;;;;;;;;;;5034567;28;20025;-63
2023/03/06 14:20:20;;;;;;;15.77;10.60;;;;;;;;;;5035108;28;20312;-66
2023/03/06 14:22:46;;;;;;;16.52;10.30;;;;;;;;;;5034086;28;20119;-65
2023/03/06 14:25:12;;;;;;;15.35;10.70;;;;;;;;;;5051145;28;20377;-64